Time;durP1;ratioP1;P1;durP2;ratioP2;P2;SDS_P1;SDS_P2;PMS_P1;PMS_P2;Temp;Humidity;BMP_temperature;BMP_pressure;BME280_temperature;BME280_humidity;BME280_pressure;Samples;Min_cycle;Max_cycle;Signal;HPM_P1;HPM_P2
2022/01/09 00:00:45;;;;;;;0.50;0.50;;;4.30;99.90;;;;;;4990991;28;20206;-73
2022/01/09 00:03:13;;;;;;;0.77;0.60;;;4.30;99.90;;;;;;4975963;28;20194;-73
2022/01/09 00:06:23;;;;;;;0.87;0.87;;;4.30;99.90;;;;;;4987726;28;20226;-73
2022/01/09 00:08:52;;;;;;;0.60;0.60;;;4.30;99.90;;;;;;4971435;28;20222;-73
2022/01/09 00:11:26;;;;;;;0.53;0.53;;;4.30;99.90;;;;;;4976086;28;20212;-73
2022/01/09 00:13:55;;;;;;;0.77;0.60;;;4.30;99.90;;;;;;4989432;28;20236;-73
2022/01/09 00:16:54;;;;;;;0.70;0.60;;;4.30;99.90;;;;;;4975281;28;20208;-73
2022/01/09 00:19:22;;;;;;;0.60;0.60;;;4.30;99.90;;;;;;4978758;28;20220;-73
2022/01/09 00:21:49;;;;;;;1.73;0.70;;;4.30;99.90;;;;;;4989338;28;20203;-73
2022/01/09 00:24:18;;;;;;;0.80;0.60;;;4.30;99.90;;;;;;4987558;28;20213;-73
2022/01/09 00:26:45;;;;;;;0.63;0.50;;;4.20;99.90;;;;;;4971187;28;20203;-73
2022/01/09 00:29:12;;;;;;;0.60;0.50;;;4.30;99.90;;;;;;4977694;28;20605;-73
2022/01/09 00:31:40;;;;;;;1.37;0.70;;;4.20;99.90;;;;;;4969615;28;20211;-73
2022/01/09 00:34:07;;;;;;;0.80;0.70;;;4.20;99.90;;;;;;4976183;28;20216;-73
2022/01/09 00:36:35;;;;;;;0.80;0.70;;;4.30;99.90;;;;;;4996831;28;20190;-73
2022/01/09 00:42:30;;;;;;;1.43;0.50;;;4.30;99.90;;;;;;4992065;28;20194;-73
2022/01/09 00:44:57;;;;;;;0.77;0.67;;;4.30;99.90;;;;;;4986810;28;20215;-73
2022/01/09 00:47:24;;;;;;;0.67;0.57;;;4.30;99.90;;;;;;4991101;28;20211;-73
2022/01/09 00:49:52;;;;;;;0.60;0.60;;;4.30;99.90;;;;;;4975968;28;20235;-73
2022/01/09 00:52:19;;;;;;;1.47;0.70;;;4.30;99.90;;;;;;4995826;28;20562;-73
2022/01/09 00:54:56;;;;;;;0.70;0.60;;;4.40;99.90;;;;;;4975896;28;20200;-73
2022/01/09 00:57:24;;;;;;;0.67;0.60;;;4.40;99.90;;;;;;4976938;28;20582;-73
2022/01/09 00:59:52;;;;;;;0.80;0.80;;;4.40;99.90;;;;;;4975898;28;20228;-73
2022/01/09 01:02:20;;;;;;;0.60;0.60;;;4.40;99.90;;;;;;4988783;28;20221;-73
2022/01/09 01:04:51;;;;;;;0.70;0.70;;;4.40;99.90;;;;;;4974398;28;20284;-73
2022/01/09 01:07:19;;;;;;;0.70;0.50;;;4.50;99.90;;;;;;4989997;28;20205;-73
2022/01/09 01:09:47;;;;;;;1.63;0.60;;;4.50;99.90;;;;;;4971736;28;20246;-73
2022/01/09 01:12:15;;;;;;;0.67;0.50;;;4.50;99.90;;;;;;4974974;28;20207;-73
2022/01/09 01:14:42;;;;;;;0.70;0.53;;;4.50;99.90;;;;;;4991584;28;20204;-73
2022/01/09 01:17:11;;;;;;;0.60;0.60;;;4.50;99.90;;;;;;4992519;28;20199;-74
2022/01/09 01:19:38;;;;;;;0.60;0.60;;;4.50;99.90;;;;;;4976314;28;20227;-71
2022/01/09 01:22:06;;;;;;;0.70;0.60;;;4.60;99.90;;;;;;4993571;28;20202;-71
2022/01/09 01:24:35;;;;;;;0.40;0.40;;;4.60;99.90;;;;;;4960264;28;20203;-71
2022/01/09 01:27:04;;;;;;;0.73;0.50;;;4.60;99.90;;;;;;4989284;28;20688;-71
2022/01/09 01:29:31;;;;;;;0.67;0.67;;;4.60;99.90;;;;;;4989041;28;20224;-71
2022/01/09 01:31:58;;;;;;;0.53;0.53;;;4.60;99.90;;;;;;4969848;28;20200;-71
2022/01/09 01:37:51;;;;;;;0.50;0.50;;;4.60;99.90;;;;;;4973254;28;20191;-71
2022/01/09 01:40:22;;;;;;;0.50;0.50;;;4.60;99.90;;;;;;4985159;28;20229;-71
2022/01/09 01:42:49;;;;;;;0.60;0.60;;;4.60;99.90;;;;;;4976169;28;20226;-71
2022/01/09 01:45:19;;;;;;;0.50;0.50;;;4.60;99.90;;;;;;4973892;28;20215;-71
2022/01/09 01:47:48;;;;;;;0.97;0.63;;;4.60;99.90;;;;;;4979330;28;20612;-71
2022/01/09 01:50:16;;;;;;;1.40;0.50;;;4.60;99.90;;;;;;4964861;28;20227;-72
2022/01/09 01:52:48;;;;;;;0.50;0.50;;;4.60;99.90;;;;;;4982216;28;20212;-71
2022/01/09 01:55:18;;;;;;;0.77;0.43;;;4.60;99.90;;;;;;4992941;28;20199;-71
2022/01/09 01:57:46;;;;;;;1.20;0.90;;;4.60;99.90;;;;;;4988920;28;20195;-71
2022/01/09 02:00:17;;;;;;;1.63;0.70;;;4.60;99.90;;;;;;4977733;28;20218;-71
2022/01/09 02:02:44;;;;;;;0.60;0.60;;;4.70;99.90;;;;;;4990018;28;20194;-71
2022/01/09 02:05:12;;;;;;;1.30;0.67;;;4.60;99.90;;;;;;4972748;28;20639;-71
2022/01/09 02:07:41;;;;;;;1.10;0.70;;;4.60;99.90;;;;;;4973453;28;20205;-71
2022/01/09 02:10:10;;;;;;;0.80;0.80;;;4.60;99.90;;;;;;4987733;28;20689;-72
2022/01/09 02:12:40;;;;;;;1.00;0.70;;;4.60;99.90;;;;;;4975425;28;20219;-71
2022/01/09 02:15:31;;;;;;;0.63;0.63;;;4.70;99.90;;;;;;4987265;28;20211;-72
2022/01/09 02:17:59;;;;;;;0.70;0.70;;;4.60;99.90;;;;;;4986898;28;20204;-72
2022/01/09 02:20:28;;;;;;;0.80;0.70;;;4.60;99.90;;;;;;4974232;28;20198;-72
2022/01/09 02:22:56;;;;;;;0.67;0.60;;;4.70;99.90;;;;;;4970282;28;20197;-71
2022/01/09 02:25:23;;;;;;;1.20;1.00;;;4.70;99.90;;;;;;4988901;28;20210;-72
2022/01/09 02:27:51;;;;;;;3.23;0.87;;;4.70;99.90;;;;;;4972460;28;20201;-71
2022/01/09 02:30:19;;;;;;;0.83;0.70;;;4.70;99.90;;;;;;4974929;28;20238;-71
2022/01/09 02:32:46;;;;;;;1.10;0.90;;;4.70;99.90;;;;;;4983685;28;20205;-72
2022/01/09 02:35:14;;;;;;;0.87;0.87;;;4.70;99.90;;;;;;4986045;28;20210;-71
2022/01/09 02:37:42;;;;;;;0.97;0.70;;;4.70;99.90;;;;;;4979699;28;20660;-71
2022/01/09 02:40:10;;;;;;;1.10;0.87;;;4.70;99.90;;;;;;4983010;28;20211;-72
2022/01/09 02:42:38;;;;;;;0.70;0.70;;;4.70;99.90;;;;;;4974942;28;20209;-72
2022/01/09 02:45:06;;;;;;;1.00;0.90;;;4.70;99.90;;;;;;4967076;28;20203;-72
2022/01/09 02:47:34;;;;;;;2.50;1.03;;;4.70;99.90;;;;;;4988541;28;20204;-71
2022/01/09 02:50:11;;;;;;;1.67;0.90;;;4.70;99.90;;;;;;4974073;28;20216;-71
2022/01/09 02:52:49;;;;;;;1.70;1.60;;;4.70;99.90;;;;;;4966429;28;20219;-71
2022/01/09 02:55:19;;;;;;;2.57;1.90;;;4.80;99.90;;;;;;4980023;28;20215;-71
2022/01/09 02:57:48;;;;;;;1.70;1.60;;;4.90;99.90;;;;;;4977343;28;20204;-72
2022/01/09 03:00:17;;;;;;;1.90;1.60;;;4.90;99.90;;;;;;4968084;28;20225;-71
2022/01/09 03:02:45;;;;;;;2.70;1.80;;;4.90;99.90;;;;;;4974210;28;20204;-72
2022/01/09 03:05:14;;;;;;;3.90;2.00;;;4.90;99.90;;;;;;4977503;28;20196;-71
2022/01/09 03:07:44;;;;;;;1.83;1.63;;;4.90;99.90;;;;;;4975243;28;20208;-72
2022/01/09 03:10:13;;;;;;;3.90;2.00;;;4.90;99.90;;;;;;4981406;28;20237;-72
2022/01/09 03:12:41;;;;;;;2.57;1.90;;;4.90;99.90;;;;;;4966764;28;20658;-72
2022/01/09 03:15:10;;;;;;;2.27;1.77;;;4.90;99.90;;;;;;4972818;28;20672;-72
2022/01/09 03:17:38;;;;;;;2.30;2.13;;;4.90;99.90;;;;;;4974085;28;20220;-71
2022/01/09 03:20:10;;;;;;;2.83;2.30;;;5.00;99.90;;;;;;4989987;28;20217;-72
2022/01/09 03:22:38;;;;;;;2.47;2.27;;;5.10;99.90;;;;;;4988483;28;20208;-72
2022/01/09 03:25:07;;;;;;;3.23;2.83;;;5.10;99.90;;;;;;4972688;28;20203;-71
2022/01/09 03:27:34;;;;;;;3.77;3.03;;;5.10;99.90;;;;;;4975532;28;20190;-72
2022/01/09 03:30:03;;;;;;;4.07;3.03;;;5.10;99.90;;;;;;4977682;28;20233;-72
2022/01/09 03:32:31;;;;;;;3.33;3.03;;;5.10;99.90;;;;;;4976224;28;20216;-72
2022/01/09 03:34:58;;;;;;;4.27;2.80;;;5.10;99.90;;;;;;4977876;28;20224;-72
2022/01/09 03:37:25;;;;;;;3.53;3.13;;;5.10;99.90;;;;;;4977837;28;20201;-71
2022/01/09 03:39:53;;;;;;;4.43;3.23;;;5.20;99.90;;;;;;4995677;28;20215;-71
2022/01/09 03:42:21;;;;;;;3.03;2.77;;;5.20;99.90;;;;;;4987462;28;20198;-71
2022/01/09 03:44:48;;;;;;;3.47;2.67;;;5.20;99.90;;;;;;4997143;28;20201;-71
2022/01/09 03:47:17;;;;;;;2.73;2.53;;;5.20;99.90;;;;;;4994686;28;20207;-71
2022/01/09 03:49:44;;;;;;;3.43;2.60;;;5.30;99.90;;;;;;4980436;28;20712;-71
2022/01/09 03:52:13;;;;;;;3.23;2.30;;;5.30;99.90;;;;;;4976933;28;20214;-72
2022/01/09 03:54:41;;;;;;;2.97;1.97;;;5.30;99.90;;;;;;4988301;28;20208;-72
2022/01/09 03:57:08;;;;;;;2.40;1.60;;;5.20;99.90;;;;;;4986099;28;20214;-71
2022/01/09 03:59:36;;;;;;;2.57;1.50;;;5.20;99.90;;;;;;4977291;28;20221;-71
2022/01/09 04:02:04;;;;;;;2.33;1.77;;;5.20;99.90;;;;;;4977347;28;20216;-71
2022/01/09 04:04:33;;;;;;;2.20;1.80;;;5.20;99.90;;;;;;4995207;28;20199;-71
2022/01/09 04:07:00;;;;;;;2.37;1.87;;;5.30;99.90;;;;;;4972351;28;20253;-72
2022/01/09 04:09:38;;;;;;;2.23;1.93;;;5.30;99.90;;;;;;4970857;28;20235;-71
2022/01/09 04:12:14;;;;;;;3.53;2.43;;;5.30;99.90;;;;;;4977688;28;20203;-71
2022/01/09 04:14:41;;;;;;;2.63;2.13;;;5.30;99.90;;;;;;4977153;28;20217;-71
2022/01/09 04:17:14;;;;;;;4.10;2.27;;;5.40;99.90;;;;;;4978509;28;20655;-73
2022/01/09 04:19:42;;;;;;;3.87;2.30;;;5.40;99.90;;;;;;4974871;28;20736;-71
2022/01/09 04:22:10;;;;;;;4.57;1.80;;;5.40;99.90;;;;;;4989312;28;20205;-71
2022/01/09 04:24:37;;;;;;;3.57;1.90;;;5.40;99.90;;;;;;4977506;28;20192;-71
2022/01/09 04:27:05;;;;;;;3.90;1.80;;;5.40;99.90;;;;;;4973618;28;20210;-72
2022/01/09 04:29:52;;;;;;;3.23;1.57;;;5.50;99.90;;;;;;4983990;28;20224;-71
2022/01/09 04:32:20;;;;;;;2.03;1.57;;;5.50;99.90;;;;;;4983305;28;20565;-71
2022/01/09 04:34:50;;;;;;;4.63;1.90;;;5.50;99.90;;;;;;5007912;28;20213;-71
2022/01/09 04:37:17;;;;;;;4.93;1.97;;;5.60;99.90;;;;;;4974291;28;20209;-71
2022/01/09 04:39:47;;;;;;;5.10;2.00;;;5.60;99.90;;;;;;4969625;28;20225;-71
2022/01/09 04:42:14;;;;;;;5.30;1.63;;;5.50;99.90;;;;;;4987403;28;20533;-71
2022/01/09 04:44:42;;;;;;;3.57;1.57;;;5.60;99.90;;;;;;4962783;28;20193;-71
2022/01/09 04:47:13;;;;;;;4.90;1.67;;;5.50;99.90;;;;;;4991846;28;20234;-71
2022/01/09 04:49:43;;;;;;;5.67;1.50;;;5.50;99.90;;;;;;4969848;28;20231;-71
2022/01/09 04:52:16;;;;;;;4.03;1.60;;;5.50;99.90;;;;;;4968733;28;20707;-71
2022/01/09 04:54:43;;;;;;;7.40;1.87;;;5.60;99.90;;;;;;4977763;28;20796;-71
2022/01/09 04:57:11;;;;;;;7.20;2.27;;;5.60;99.90;;;;;;4976161;28;20690;-71
2022/01/09 04:59:38;;;;;;;8.57;3.00;;;5.60;99.90;;;;;;4976684;28;20251;-71
2022/01/09 05:02:06;;;;;;;11.27;3.97;;;5.60;99.90;;;;;;4974324;28;20205;-71
2022/01/09 05:04:34;;;;;;;12.17;4.07;;;5.70;99.90;;;;;;4992739;28;20197;-71
2022/01/09 05:07:01;;;;;;;20.67;5.70;;;5.70;99.90;;;;;;4975437;28;20206;-71
2022/01/09 05:09:30;;;;;;;15.53;5.53;;;5.80;99.90;;;;;;4966984;28;20225;-71
2022/01/09 05:11:57;;;;;;;17.53;4.70;;;5.80;99.90;;;;;;4973841;28;20567;-71
2022/01/09 05:14:25;;;;;;;17.10;5.07;;;5.90;99.90;;;;;;4979273;28;20207;-71
2022/01/09 05:16:52;;;;;;;20.00;5.23;;;5.90;99.90;;;;;;4974280;28;20202;-72
2022/01/09 05:19:21;;;;;;;18.30;5.20;;;5.90;99.90;;;;;;4986781;28;20227;-71
2022/01/09 05:21:50;;;;;;;17.17;5.50;;;5.90;99.90;;;;;;4993496;28;20198;-71
2022/01/09 05:24:17;;;;;;;19.40;5.43;;;6.00;99.90;;;;;;4974498;28;20211;-71
2022/01/09 05:26:46;;;;;;;23.90;5.93;;;6.00;99.90;;;;;;4985817;28;20197;-71
2022/01/09 05:29:13;;;;;;;22.87;5.73;;;6.00;99.90;;;;;;4982398;28;20221;-71
2022/01/09 05:31:41;;;;;;;28.53;5.93;;;6.00;99.90;;;;;;4983329;28;20197;-72
2022/01/09 05:34:08;;;;;;;17.27;5.47;;;6.00;99.90;;;;;;4979890;28;20221;-72
2022/01/09 05:36:36;;;;;;;19.63;5.13;;;6.10;99.90;;;;;;4973391;28;20217;-71
2022/01/09 05:39:04;;;;;;;16.87;4.53;;;6.10;99.90;;;;;;4987409;28;20574;-71
2022/01/09 05:41:31;;;;;;;19.57;4.53;;;6.00;99.90;;;;;;4991572;28;20197;-71
2022/01/09 05:43:59;;;;;;;17.87;5.40;;;6.00;99.90;;;;;;4986713;28;20194;-71
2022/01/09 05:46:27;;;;;;;12.23;3.83;;;6.00;99.90;;;;;;4973713;28;20198;-71
2022/01/09 05:48:54;;;;;;;16.50;4.20;;;5.90;99.90;;;;;;4975019;28;20689;-71
2022/01/09 05:51:21;;;;;;;14.57;4.97;;;5.90;99.90;;;;;;4975147;28;20210;-72
2022/01/09 05:53:49;;;;;;;16.27;5.23;;;5.90;99.90;;;;;;4976569;28;20202;-71
2022/01/09 05:56:16;;;;;;;19.77;6.13;;;5.90;99.90;;;;;;4973246;28;20222;-71
2022/01/09 05:58:43;;;;;;;22.00;6.60;;;5.90;99.90;;;;;;4990938;28;20610;-71
2022/01/09 06:01:12;;;;;;;17.80;6.13;;;5.90;99.90;;;;;;4985212;28;20204;-71
2022/01/09 06:03:40;;;;;;;19.43;5.60;;;5.90;99.90;;;;;;4969503;28;20201;-71
2022/01/09 06:06:07;;;;;;;17.37;5.43;;;5.90;99.90;;;;;;4972106;28;20205;-71
2022/01/09 06:08:35;;;;;;;18.23;6.33;;;5.90;99.90;;;;;;4986805;28;20217;-71
2022/01/09 06:11:02;;;;;;;19.27;4.97;;;5.90;99.90;;;;;;4978647;28;20202;-71
2022/01/09 06:13:29;;;;;;;13.50;4.27;;;5.80;99.90;;;;;;4976567;28;20201;-71
2022/01/09 06:15:57;;;;;;;18.37;5.20;;;5.80;99.90;;;;;;4985245;28;20321;-71
2022/01/09 06:18:25;;;;;;;10.70;3.50;;;5.90;99.90;;;;;;4974823;28;20225;-75
2022/01/09 06:20:53;;;;;;;11.73;3.70;;;5.70;99.90;;;;;;4982618;28;20202;-71
2022/01/09 06:23:20;;;;;;;9.43;2.50;;;5.40;99.90;;;;;;4984133;28;20196;-71
2022/01/09 06:25:48;;;;;;;7.30;3.40;;;5.60;99.90;;;;;;4969519;28;20566;-71
2022/01/09 06:28:31;;;;;;;12.37;3.77;;;6.20;99.90;;;;;;4970569;28;20229;-72
2022/01/09 06:30:58;;;;;;;6.37;3.20;;;5.90;99.90;;;;;;4988243;28;20583;-71
2022/01/09 06:34:08;;;;;;;10.63;3.37;;;5.60;99.90;;;;;;4993716;28;20197;-72
2022/01/09 06:36:37;;;;;;;20.53;4.83;;;5.50;99.90;;;;;;4969925;28;20217;-72
2022/01/09 06:39:12;;;;;;;15.07;4.10;;;5.60;99.90;;;;;;4960276;28;20231;-71
2022/01/09 06:41:40;;;;;;;14.73;4.17;;;5.70;99.90;;;;;;4967009;28;20197;-71
2022/01/09 06:44:07;;;;;;;14.50;4.40;;;5.70;99.90;;;;;;4956426;28;20205;-71
2022/01/09 06:46:35;;;;;;;11.03;3.93;;;5.70;99.90;;;;;;4965677;28;20206;-72
2022/01/09 06:49:15;;;;;;;17.47;4.17;;;5.70;99.90;;;;;;4971276;28;20209;-73
2022/01/09 06:51:44;;;;;;;19.40;4.30;;;5.70;99.90;;;;;;4970264;28;20213;-71
2022/01/09 06:54:13;;;;;;;13.27;3.77;;;5.70;99.90;;;;;;4987556;28;20206;-72
2022/01/09 06:56:46;;;;;;;11.93;3.90;;;5.70;99.90;;;;;;4990485;28;20212;-72
2022/01/09 06:59:41;;;;;;;11.63;4.50;;;5.70;99.90;;;;;;4990890;28;20217;-72
2022/01/09 07:02:31;;;;;;;12.17;3.80;;;5.70;99.90;;;;;;4986938;28;20213;-72
2022/01/09 07:04:58;;;;;;;13.80;4.23;;;5.70;99.90;;;;;;4982323;28;20204;-71
2022/01/09 07:07:34;;;;;;;14.20;4.33;;;5.70;99.90;;;;;;4967494;28;20208;-72
2022/01/09 07:10:01;;;;;;;12.67;4.03;;;5.70;99.90;;;;;;4972030;28;20223;-71
2022/01/09 07:12:29;;;;;;;11.33;3.77;;;5.70;99.90;;;;;;4994502;28;20189;-71
2022/01/09 07:14:56;;;;;;;10.23;3.87;;;5.70;99.90;;;;;;4970983;28;20213;-72
2022/01/09 07:17:23;;;;;;;11.87;4.10;;;5.70;99.90;;;;;;4987085;28;20226;-72
2022/01/09 07:19:51;;;;;;;16.17;4.57;;;5.70;99.90;;;;;;4975475;28;20229;-71
2022/01/09 07:22:18;;;;;;;12.80;3.97;;;5.70;99.90;;;;;;4972154;28;20204;-72
2022/01/09 07:24:47;;;;;;;11.10;4.33;;;5.70;99.90;;;;;;4992208;28;20675;-71
2022/01/09 07:27:14;;;;;;;17.17;4.30;;;5.70;99.90;;;;;;4971421;28;20202;-70
2022/01/09 07:29:43;;;;;;;9.77;3.83;;;5.80;99.90;;;;;;4972463;28;20237;-74
2022/01/09 07:32:11;;;;;;;9.63;3.90;;;5.70;99.90;;;;;;4982139;28;20205;-72
2022/01/09 07:34:38;;;;;;;11.17;3.27;;;5.70;99.90;;;;;;4982478;28;20201;-72
2022/01/09 07:37:06;;;;;;;9.33;3.93;;;5.70;99.90;;;;;;4970511;28;20267;-73
2022/01/09 07:39:34;;;;;;;14.93;3.73;;;5.70;99.90;;;;;;4974337;28;20229;-73
2022/01/09 07:42:02;;;;;;;11.90;3.70;;;5.70;99.90;;;;;;4976847;28;20284;-72
2022/01/09 07:44:30;;;;;;;6.50;3.03;;;5.70;99.90;;;;;;4994628;28;20215;-72
2022/01/09 07:47:11;;;;;;;9.00;2.90;;;5.70;99.90;;;;;;4980908;28;20205;-72
2022/01/09 07:49:41;;;;;;;14.90;4.13;;;5.70;99.90;;;;;;4972788;28;20761;-73
2022/01/09 07:52:08;;;;;;;13.47;4.00;;;5.70;99.90;;;;;;4990355;28;20200;-73
2022/01/09 07:54:36;;;;;;;11.83;3.83;;;5.70;99.90;;;;;;4966896;28;20198;-72
2022/01/09 07:57:09;;;;;;;12.53;4.17;;;5.70;99.90;;;;;;4973179;28;20215;-73
2022/01/09 07:59:37;;;;;;;16.13;4.53;;;5.70;99.90;;;;;;4978297;28;20217;-73
2022/01/09 08:02:12;;;;;;;12.17;4.63;;;5.70;99.90;;;;;;4979350;28;20205;-73
2022/01/09 08:04:40;;;;;;;13.13;4.33;;;5.70;99.90;;;;;;4975949;28;20203;-73
2022/01/09 08:07:07;;;;;;;12.07;3.97;;;5.70;99.90;;;;;;4976142;28;20209;-73
2022/01/09 08:09:53;;;;;;;11.60;4.23;;;5.70;99.90;;;;;;4971631;28;20221;-73
2022/01/09 08:12:21;;;;;;;11.00;4.43;;;5.70;99.90;;;;;;4956775;28;20205;-73
2022/01/09 08:14:49;;;;;;;10.97;4.30;;;5.70;99.90;;;;;;4995095;28;20181;-74
2022/01/09 08:17:24;;;;;;;16.40;5.03;;;5.80;99.90;;;;;;4975404;28;20218;-73
2022/01/09 08:20:02;;;;;;;10.40;4.43;;;5.80;99.90;;;;;;4972814;28;20700;-73
2022/01/09 08:22:58;;;;;;;16.17;4.53;;;5.70;99.90;;;;;;4985256;28;20213;-73
2022/01/09 08:25:40;;;;;;;12.43;4.67;;;5.70;99.90;;;;;;4971311;28;20593;-73
2022/01/09 08:28:10;;;;;;;10.77;5.03;;;5.70;99.90;;;;;;4959168;28;20287;-73
2022/01/09 08:30:38;;;;;;;11.80;4.60;;;5.70;99.90;;;;;;4979593;28;20208;-73
2022/01/09 08:33:05;;;;;;;14.90;5.83;;;5.70;99.90;;;;;;4977198;28;20216;-73
2022/01/09 08:35:33;;;;;;;12.40;4.93;;;5.70;99.90;;;;;;4992266;28;20656;-73
2022/01/09 08:38:00;;;;;;;10.60;4.67;;;5.80;99.90;;;;;;4992183;28;20213;-73
2022/01/09 08:40:27;;;;;;;14.00;5.20;;;5.80;99.90;;;;;;5006123;28;20274;-74
2022/01/09 08:42:56;;;;;;;12.00;6.33;;;5.80;99.90;;;;;;4993564;28;20202;-74
2022/01/09 08:45:24;;;;;;;14.97;5.70;;;5.70;99.90;;;;;;4983629;28;20587;-74
2022/01/09 08:47:52;;;;;;;14.03;6.53;;;5.80;99.90;;;;;;4975935;28;20656;-74
2022/01/09 08:50:24;;;;;;;13.40;5.30;;;5.70;99.90;;;;;;4976337;28;20224;-74
2022/01/09 08:52:52;;;;;;;12.10;5.57;;;5.70;99.90;;;;;;4986334;28;20664;-74
2022/01/09 08:55:26;;;;;;;13.87;5.23;;;5.60;99.90;;;;;;4973293;28;20212;-74
2022/01/09 08:57:57;;;;;;;12.70;5.00;;;5.70;99.90;;;;;;4975071;28;20637;-74
2022/01/09 09:00:35;;;;;;;15.67;6.13;;;5.70;99.90;;;;;;4988669;28;20223;-74
2022/01/09 09:03:13;;;;;;;11.37;4.97;;;5.80;99.90;;;;;;4966942;28;20206;-74
2022/01/09 09:05:46;;;;;;;10.73;5.80;;;5.80;99.90;;;;;;4987759;28;20201;-76
2022/01/09 09:08:49;;;;;;;14.00;5.70;;;5.70;99.90;;;;;;4991804;28;20193;-75
2022/01/09 09:11:17;;;;;;;14.23;5.10;;;5.60;99.90;;;;;;4955124;28;20219;-76
2022/01/09 09:13:45;;;;;;;15.17;5.23;;;5.70;99.90;;;;;;4973064;28;20189;-75
2022/01/09 09:16:13;;;;;;;13.40;5.17;;;5.60;99.90;;;;;;4991620;28;20197;-76
2022/01/09 09:18:47;;;;;;;14.87;4.93;;;5.60;99.90;;;;;;4988652;28;20218;-76
2022/01/09 09:21:16;;;;;;;11.43;5.13;;;5.60;99.90;;;;;;4971874;28;20204;-76
2022/01/09 09:23:43;;;;;;;13.30;5.67;;;5.60;99.90;;;;;;4975333;28;20197;-76
2022/01/09 09:26:11;;;;;;;9.67;4.27;;;5.60;99.90;;;;;;4968667;28;20194;-76
2022/01/09 09:28:39;;;;;;;12.30;5.27;;;5.50;99.90;;;;;;4969420;28;20267;-76
2022/01/09 09:31:20;;;;;;;9.10;4.43;;;5.60;99.90;;;;;;4990486;28;20199;-75
2022/01/09 09:33:47;;;;;;;12.67;4.87;;;5.70;99.90;;;;;;4975954;28;20206;-77
2022/01/09 09:36:15;;;;;;;13.30;4.63;;;5.70;99.90;;;;;;4977294;28;20205;-78
2022/01/09 09:39:21;;;;;;;15.30;4.93;;;5.80;99.90;;;;;;4987877;28;20709;-77
2022/01/09 09:41:51;;;;;;;10.10;4.83;;;5.70;99.90;;;;;;4984939;28;20205;-78
2022/01/09 09:44:19;;;;;;;9.63;3.87;;;5.60;99.90;;;;;;4975365;28;20664;-77
2022/01/09 09:46:51;;;;;;;9.00;4.33;;;5.80;99.90;;;;;;4985878;28;20202;-76
2022/01/09 09:49:20;;;;;;;13.13;5.17;;;5.70;99.90;;;;;;4986081;28;20213;-76
2022/01/09 09:51:47;;;;;;;14.10;5.40;;;5.70;99.90;;;;;;4974207;28;20223;-76
2022/01/09 09:54:15;;;;;;;13.70;4.93;;;5.70;99.90;;;;;;4970339;28;20202;-77
2022/01/09 09:56:42;;;;;;;10.27;4.53;;;5.70;99.90;;;;;;4993168;28;20709;-77
2022/01/09 09:59:09;;;;;;;12.07;5.27;;;5.90;99.90;;;;;;4991876;28;20223;-76
2022/01/09 10:01:37;;;;;;;14.23;5.10;;;5.90;99.90;;;;;;4997916;28;20196;-77
2022/01/09 10:04:07;;;;;;;8.50;4.63;;;5.80;99.90;;;;;;4974602;28;20552;-77
2022/01/09 10:06:47;;;;;;;14.33;5.10;;;5.70;99.90;;;;;;4976851;28;20696;-77
2022/01/09 10:09:16;;;;;;;12.43;4.17;;;5.70;99.90;;;;;;4972866;28;20220;-77
2022/01/09 10:11:46;;;;;;;12.27;5.07;;;5.80;99.90;;;;;;4969620;28;20213;-76
2022/01/09 10:14:17;;;;;;;11.30;4.73;;;5.80;99.90;;;;;;4980579;28;20203;-77
2022/01/09 10:17:06;;;;;;;10.23;4.87;;;5.80;99.90;;;;;;4973657;28;20574;-77
2022/01/09 10:19:48;;;;;;;12.70;5.07;;;5.70;99.90;;;;;;4987765;28;20216;-76
2022/01/09 10:22:26;;;;;;;8.00;4.47;;;5.70;99.90;;;;;;4964607;28;20200;-77
2022/01/09 10:24:55;;;;;;;11.73;5.30;;;5.80;99.90;;;;;;4973743;28;20200;-77
2022/01/09 10:27:34;;;;;;;11.87;5.13;;;5.70;99.90;;;;;;4970879;28;20200;-77
2022/01/09 10:30:08;;;;;;;13.10;6.10;;;5.80;99.90;;;;;;4990711;28;20224;-76
2022/01/09 10:32:35;;;;;;;11.23;5.00;;;5.70;99.90;;;;;;4969953;28;20204;-77
2022/01/09 10:35:13;;;;;;;9.67;5.53;;;5.80;99.90;;;;;;4991246;28;20205;-77
2022/01/09 10:38:19;;;;;;;9.30;4.50;;;5.90;99.90;;;;;;4966041;28;20700;-77
2022/01/09 10:40:52;;;;;;;13.13;4.60;;;6.00;99.90;;;;;;4968672;28;20209;-76
2022/01/09 10:43:21;;;;;;;8.40;4.43;;;5.90;99.90;;;;;;4972400;28;20205;-76
2022/01/09 10:45:56;;;;;;;8.93;4.20;;;5.80;99.90;;;;;;4971261;28;20204;-76
2022/01/09 10:48:35;;;;;;;10.13;4.10;;;5.70;99.90;;;;;;4963708;28;20220;-76
2022/01/09 10:51:07;;;;;;;11.30;4.17;;;5.80;99.90;;;;;;4971932;28;20214;-76
2022/01/09 10:53:36;;;;;;;8.70;4.70;;;5.90;99.90;;;;;;4980566;28;20208;-76
2022/01/09 10:56:09;;;;;;;8.27;4.60;;;5.90;99.90;;;;;;4985860;28;20213;-77
2022/01/09 10:58:39;;;;;;;14.17;4.80;;;5.90;99.90;;;;;;4986930;28;20229;-77
2022/01/09 11:01:09;;;;;;;10.13;5.30;;;5.90;99.90;;;;;;4978819;28;20194;-77
2022/01/09 11:03:37;;;;;;;11.83;5.17;;;5.80;99.90;;;;;;4986243;28;20563;-77
2022/01/09 11:06:07;;;;;;;13.40;4.87;;;5.80;99.90;;;;;;4975751;28;20207;-77
2022/01/09 11:08:36;;;;;;;11.23;5.33;;;5.80;99.90;;;;;;4988007;28;20254;-76
2022/01/09 11:11:07;;;;;;;11.90;5.93;;;5.80;99.90;;;;;;4969511;28;20201;-77
2022/01/09 11:13:37;;;;;;;12.53;5.40;;;5.80;99.90;;;;;;4984364;28;20209;-76
2022/01/09 11:18:57;;;;;;;13.57;5.20;;;5.90;99.90;;;;;;4960350;28;20228;-76
2022/01/09 11:21:26;;;;;;;9.50;5.90;;;5.90;99.90;;;;;;4968483;28;20224;-76
2022/01/09 11:24:06;;;;;;;11.37;5.10;;;6.10;99.90;;;;;;4969935;28;20196;-77
2022/01/09 11:26:41;;;;;;;13.03;5.87;;;6.00;99.90;;;;;;4970911;28;20206;-78
2022/01/09 11:29:12;;;;;;;9.77;6.00;;;6.00;99.90;;;;;;4961495;28;20218;-78
2022/01/09 11:31:50;;;;;;;13.33;6.87;;;6.00;99.90;;;;;;4984122;28;20205;-78
2022/01/09 11:34:25;;;;;;;12.90;6.20;;;5.90;99.90;;;;;;4973505;28;20197;-76
2022/01/09 11:37:09;;;;;;;13.17;7.13;;;5.90;99.90;;;;;;4988115;28;20189;-76
2022/01/09 11:39:37;;;;;;;11.73;5.53;;;5.90;99.90;;;;;;4987915;28;20224;-76
2022/01/09 11:42:26;;;;;;;12.20;6.10;;;6.00;99.90;;;;;;4984453;28;20214;-76
2022/01/09 11:45:12;;;;;;;10.10;6.10;;;5.90;99.90;;;;;;4979026;28;20186;-75
2022/01/09 11:47:50;;;;;;;9.60;4.83;;;6.00;99.90;;;;;;4974733;28;20694;-76
2022/01/09 11:50:18;;;;;;;13.23;6.60;;;5.80;99.90;;;;;;4972084;28;20224;-76
2022/01/09 11:53:01;;;;;;;13.07;6.87;;;5.90;99.90;;;;;;4973252;28;20217;-75
2022/01/09 11:55:41;;;;;;;13.13;7.30;;;5.80;99.90;;;;;;4975005;28;20201;-78
2022/01/09 11:58:11;;;;;;;12.30;7.37;;;5.80;99.90;;;;;;4977422;28;20217;-78
2022/01/09 12:00:41;;;;;;;14.57;8.20;;;5.80;99.90;;;;;;4974216;28;20663;-78
2022/01/09 12:03:36;;;;;;;14.53;8.10;;;5.80;99.90;;;;;;4980931;28;20209;-78
2022/01/09 12:06:05;;;;;;;14.70;8.10;;;5.90;99.90;;;;;;4973736;28;20562;-78
2022/01/09 12:09:09;;;;;;;14.13;8.17;;;5.80;99.90;;;;;;4976494;28;20217;-78
2022/01/09 12:12:14;;;;;;;15.57;7.90;;;5.90;99.90;;;;;;4994190;28;20191;-78
2022/01/09 12:15:01;;;;;;;15.07;8.13;;;5.90;99.90;;;;;;4973780;28;20562;-78
2022/01/09 12:17:42;;;;;;;13.67;7.43;;;5.90;99.90;;;;;;4976142;28;20221;-78
2022/01/09 12:20:23;;;;;;;14.00;8.03;;;5.90;99.90;;;;;;4975465;28;20239;-78
2022/01/09 12:23:20;;;;;;;10.63;7.23;;;5.90;99.90;;;;;;4987808;28;20198;-76
2022/01/09 12:25:57;;;;;;;15.47;7.50;;;6.00;99.90;;;;;;4975286;28;20202;-77
2022/01/09 12:28:37;;;;;;;10.57;7.13;;;6.00;99.90;;;;;;4974597;28;20201;-76
2022/01/09 12:31:25;;;;;;;9.63;7.20;;;6.10;99.90;;;;;;4977824;28;20200;-76
2022/01/09 12:33:54;;;;;;;13.30;7.20;;;6.00;99.90;;;;;;4986239;28;20589;-76
2022/01/09 12:36:23;;;;;;;11.53;6.50;;;6.00;99.90;;;;;;4993303;28;20656;-75
2022/01/09 12:38:55;;;;;;;11.63;6.80;;;6.10;99.90;;;;;;4969309;28;20233;-76
2022/01/09 12:41:27;;;;;;;12.43;7.13;;;6.10;99.90;;;;;;4987851;28;20201;-76
2022/01/09 12:44:14;;;;;;;13.40;7.37;;;6.20;99.90;;;;;;4969148;28;20286;-76
2022/01/09 12:46:44;;;;;;;9.63;6.27;;;6.20;99.90;;;;;;4968198;28;20201;-76
2022/01/09 12:49:15;;;;;;;9.97;6.27;;;6.20;99.90;;;;;;4974039;28;20226;-76
2022/01/09 12:51:57;;;;;;;11.70;6.20;;;6.20;99.90;;;;;;4991743;28;20640;-76
2022/01/09 12:54:24;;;;;;;10.53;5.73;;;6.10;99.90;;;;;;4993024;28;20217;-76
2022/01/09 12:56:53;;;;;;;11.43;5.97;;;6.20;99.90;;;;;;4976831;28;20206;-76
2022/01/09 12:59:24;;;;;;;8.77;5.90;;;6.30;99.90;;;;;;4973867;28;20262;-76
2022/01/09 13:01:51;;;;;;;11.13;6.27;;;6.20;99.90;;;;;;4987385;28;20208;-78
2022/01/09 13:04:22;;;;;;;12.23;6.80;;;6.20;99.90;;;;;;4972294;28;20202;-78
2022/01/09 13:06:52;;;;;;;12.47;7.43;;;6.20;99.90;;;;;;4971904;28;20197;-78
2022/01/09 13:09:21;;;;;;;10.67;6.17;;;6.20;99.90;;;;;;4971965;28;20229;-78
2022/01/09 13:11:59;;;;;;;11.97;6.07;;;6.20;99.90;;;;;;4977026;28;20212;-77
2022/01/09 13:14:46;;;;;;;10.13;6.43;;;6.10;99.90;;;;;;4971480;28;20209;-78
2022/01/09 13:17:22;;;;;;;12.50;6.43;;;6.10;99.90;;;;;;4975572;28;20216;-77
2022/01/09 13:19:54;;;;;;;15.30;7.73;;;6.00;99.90;;;;;;4976233;28;20217;-78
2022/01/09 13:22:21;;;;;;;16.93;7.03;;;6.00;99.90;;;;;;4974538;28;20218;-78